Time;durP1;ratioP1;P1;durP2;ratioP2;P2;SDS_P1;SDS_P2;PMS_P1;PMS_P2;Temp;Humidity;BMP_temperature;BMP_pressure;BME280_temperature;BME280_humidity;BME280_pressure;Samples;Min_cycle;Max_cycle;Signal;HPM_P1;HPM_P2
2023/03/05 00:01:24;;;;;;;53.3;27.4;;;;;;;;;;;;;
2023/03/05 00:03:50;;;;;;;50.8;27.6;;;;;;;;;;;;;
2023/03/05 00:06:15;;;;;;;56.2;27.8;;;;;;;;;;;;;
2023/03/05 00:08:40;;;;;;;57;28.2;;;;;;;;;;;;;
2023/03/05 00:11:05;;;;;;;53.2;28.1;;;;;;;;;;;;;
2023/03/05 00:13:30;;;;;;;58.9;29;;;;;;;;;;;;;
2023/03/05 00:16:00;;;;;;;55.8;28;;;;;;;;;;;;;
2023/03/05 00:18:25;;;;;;;49;28.3;;;;;;;;;;;;;
2023/03/05 00:20:50;;;;;;;50.7;27.2;;;;;;;;;;;;;
2023/03/05 00:23:16;;;;;;;54.9;27.2;;;;;;;;;;;;;
2023/03/05 00:25:45;;;;;;;54.5;28.7;;;;;;;;;;;;;
2023/03/05 00:28:09;;;;;;;49.3;27;;;;;;;;;;;;;
2023/03/05 00:30:37;;;;;;;50.3;28.3;;;;;;;;;;;;;
2023/03/05 00:33:02;;;;;;;51.7;28.9;;;;;;;;;;;;;
2023/03/05 00:35:29;;;;;;;54.1;28.7;;;;;;;;;;;;;
2023/03/05 00:37:59;;;;;;;54;28.8;;;;;;;;;;;;;
2023/03/05 00:40:30;;;;;;;54.3;28.1;;;;;;;;;;;;;
2023/03/05 00:42:59;;;;;;;50.1;27.8;;;;;;;;;;;;;
2023/03/05 00:45:25;;;;;;;53.6;28.1;;;;;;;;;;;;;
2023/03/05 00:47:50;;;;;;;51.6;27.5;;;;;;;;;;;;;
2023/03/05 00:50:15;;;;;;;57.8;28.4;;;;;;;;;;;;;
2023/03/05 00:52:41;;;;;;;54.9;29.7;;;;;;;;;;;;;
2023/03/05 00:55:05;;;;;;;52.8;28.8;;;;;;;;;;;;;
2023/03/05 00:57:31;;;;;;;49.3;27.6;;;;;;;;;;;;;
2023/03/05 00:59:56;;;;;;;53.2;29.4;;;;;;;;;;;;;
2023/03/05 01:02:21;;;;;;;52.8;30.4;;;;;;;;;;;;;
2023/03/05 01:04:48;;;;;;;51.1;28;;;;;;;;;;;;;
2023/03/05 01:07:13;;;;;;;58.2;29.1;;;;;;;;;;;;;
2023/03/05 01:09:39;;;;;;;54;28.5;;;;;;;;;;;;;
2023/03/05 01:12:04;;;;;;;53.3;28.4;;;;;;;;;;;;;
2023/03/05 01:14:31;;;;;;;53;28.4;;;;;;;;;;;;;
2023/03/05 01:16:56;;;;;;;50.3;28.1;;;;;;;;;;;;;
2023/03/05 01:19:26;;;;;;;52.6;29.8;;;;;;;;;;;;;
2023/03/05 01:21:53;;;;;;;55;28.6;;;;;;;;;;;;;
2023/03/05 01:24:17;;;;;;;55.4;29.2;;;;;;;;;;;;;
2023/03/05 01:26:42;;;;;;;55.5;27.8;;;;;;;;;;;;;
2023/03/05 01:29:07;;;;;;;53.5;28.5;;;;;;;;;;;;;
2023/03/05 01:31:32;;;;;;;51;28.4;;;;;;;;;;;;;
2023/03/05 01:33:59;;;;;;;51.2;28.1;;;;;;;;;;;;;
2023/03/05 01:36:40;;;;;;;54.2;29.1;;;;;;;;;;;;;
2023/03/05 01:38:48;;;;;;;53.7;29;;;;;;;;;;;;;
2023/03/05 01:41:13;;;;;;;49.7;27.7;;;;;;;;;;;;;
2023/03/05 01:43:40;;;;;;;47.8;27.4;;;;;;;;;;;;;
2023/03/05 01:46:05;;;;;;;51.5;28.1;;;;;;;;;;;;;
2023/03/05 01:48:33;;;;;;;50.5;28.7;;;;;;;;;;;;;
2023/03/05 01:50:58;;;;;;;52;29.2;;;;;;;;;;;;;
2023/03/05 01:53:24;;;;;;;56.8;28.2;;;;;;;;;;;;;
2023/03/05 01:55:49;;;;;;;51.7;27.5;;;;;;;;;;;;;
2023/03/05 01:58:14;;;;;;;52.7;27.5;;;;;;;;;;;;;
2023/03/05 02:00:40;;;;;;;52.5;27.4;;;;;;;;;;;;;
2023/03/05 02:03:06;;;;;;;54.5;28.9;;;;;;;;;;;;;
2023/03/05 02:05:32;;;;;;;55.9;28.9;;;;;;;;;;;;;
2023/03/05 02:07:57;;;;;;;55.6;28.4;;;;;;;;;;;;;
2023/03/05 02:10:22;;;;;;;53.5;28.4;;;;;;;;;;;;;
2023/03/05 02:12:48;;;;;;;52.1;28.8;;;;;;;;;;;;;
2023/03/05 02:15:18;;;;;;;52.7;28.4;;;;;;;;;;;;;
2023/03/05 02:17:47;;;;;;;54.1;29.3;;;;;;;;;;;;;
2023/03/05 02:20:19;;;;;;;50.7;26.9;;;;;;;;;;;;;
2023/03/05 02:22:44;;;;;;;52.4;27.3;;;;;;;;;;;;;
2023/03/05 02:25:09;;;;;;;55.8;28.9;;;;;;;;;;;;;
2023/03/05 02:27:35;;;;;;;58.3;30.8;;;;;;;;;;;;;
2023/03/05 02:30:00;;;;;;;53.9;29.5;;;;;;;;;;;;;
2023/03/05 02:32:25;;;;;;;54.6;30.7;;;;;;;;;;;;;
2023/03/05 02:34:50;;;;;;;57.7;30.1;;;;;;;;;;;;;
2023/03/05 02:37:18;;;;;;;60.5;30.9;;;;;;;;;;;;;
2023/03/05 02:39:43;;;;;;;63.8;30.7;;;;;;;;;;;;;
2023/03/05 02:42:08;;;;;;;61.7;31.2;;;;;;;;;;;;;
2023/03/05 02:45:14;;;;;;;60.8;30.5;;;;;;;;;;;;;
2023/03/05 02:47:42;;;;;;;58.6;30.1;;;;;;;;;;;;;
2023/03/05 02:50:07;;;;;;;61.6;31.1;;;;;;;;;;;;;
2023/03/05 02:52:34;;;;;;;58.1;31;;;;;;;;;;;;;
2023/03/05 02:54:59;;;;;;;66.4;31.7;;;;;;;;;;;;;
2023/03/05 02:57:24;;;;;;;58.2;30.4;;;;;;;;;;;;;
2023/03/05 02:59:51;;;;;;;60.8;32;;;;;;;;;;;;;
2023/03/05 03:02:16;;;;;;;62.7;30.9;;;;;;;;;;;;;
2023/03/05 03:04:41;;;;;;;68.7;32.2;;;;;;;;;;;;;
2023/03/05 03:07:08;;;;;;;61.6;31.8;;;;;;;;;;;;;
2023/03/05 03:09:33;;;;;;;63.6;31.3;;;;;;;;;;;;;
2023/03/05 03:11:59;;;;;;;64.4;31.7;;;;;;;;;;;;;
2023/03/05 03:14:24;;;;;;;61.6;32.6;;;;;;;;;;;;;
2023/03/05 03:16:51;;;;;;;63.9;31.6;;;;;;;;;;;;;
2023/03/05 03:19:16;;;;;;;60.1;31;;;;;;;;;;;;;
2023/03/05 03:21:43;;;;;;;61.8;31.7;;;;;;;;;;;;;
2023/03/05 03:24:08;;;;;;;58.5;31;;;;;;;;;;;;;
2023/03/05 03:26:35;;;;;;;63.6;32.1;;;;;;;;;;;;;
2023/03/05 03:29:00;;;;;;;60.3;32.1;;;;;;;;;;;;;
2023/03/05 03:31:28;;;;;;;60.2;31.6;;;;;;;;;;;;;
2023/03/05 03:33:53;;;;;;;59.9;30.7;;;;;;;;;;;;;
2023/03/05 03:36:18;;;;;;;59.1;30.4;;;;;;;;;;;;;
2023/03/05 03:38:44;;;;;;;65.4;31.4;;;;;;;;;;;;;
2023/03/05 03:41:10;;;;;;;65.1;32.2;;;;;;;;;;;;;
2023/03/05 03:43:35;;;;;;;63.9;33;;;;;;;;;;;;;
2023/03/05 03:46:32;;;;;;;65.6;33.7;;;;;;;;;;;;;
2023/03/05 03:48:58;;;;;;;64.5;32.6;;;;;;;;;;;;;
2023/03/05 03:51:23;;;;;;;70.9;32.9;;;;;;;;;;;;;
2023/03/05 03:53:49;;;;;;;65.9;33.1;;;;;;;;;;;;;
2023/03/05 03:56:14;;;;;;;63.2;31.1;;;;;;;;;;;;;
2023/03/05 03:58:40;;;;;;;64.3;32.3;;;;;;;;;;;;;
2023/03/05 04:02:39;;;;;;;63.3;32;;;;;;;1.5;87.18457;936.9227;;;;
2023/03/05 04:05:12;;;;;;;60.4;31;;;;;;;1.48;87.10254;936.9492;;;;
2023/03/05 04:07:44;;;;;;;65.9;32.4;;;;;;;1.32;87.73047;936.8917;;;;
2023/03/05 04:10:08;;;;;;;62;32;;;;;;;1.35;87.98145;936.8292;;;;
2023/03/05 04:12:38;;;;;;;67.7;34;;;;;;;1.5;87.58887;936.8389;;;;
2023/03/05 04:17:44;;;;;;;63.9;32.1;;;;;;;1.32;87.8623;936.7392;;;;
2023/03/05 04:20:20;;;;;;;62.1;31.3;;;;;;;1.47;88.06152;936.7372;;;;
2023/03/05 04:22:47;;;;;;;62.6;31.1;;;;;;;1.59;87.40625;936.6685;;;;
2023/03/05 04:25:20;;;;;;;62;31.9;;;;;;;1.52;87.22168;936.6323;;;;
2023/03/05 04:27:54;;;;;;;67.2;33.4;;;;;;;1.45;87.65527;936.632;;;;
2023/03/05 04:30:21;;;;;;;65.3;33.4;;;;;;;1.31;88.1748;936.5687;;;;
2023/03/05 04:32:53;;;;;;;68.5;33.3;;;;;;;1.22;88.99219;936.5258;;;;
2023/03/05 04:35:18;;;;;;;64.5;31.8;;;;;;;1.33;88.93848;936.5053;;;;
2023/03/05 04:37:50;;;;;;;65.3;33.2;;;;;;;1.51;88.57422;936.5073;;;;
2023/03/05 04:40:18;;;;;;;67.2;32.9;;;;;;;1.41;88.44141;936.5042;;;;
2023/03/05 04:42:43;;;;;;;65.6;32.7;;;;;;;1.48;88.37695;936.4597;;;;
2023/03/05 04:45:18;;;;;;;68.1;33.8;;;;;;;1.53;87.68555;936.4581;;;;
2023/03/05 04:47:43;;;;;;;64.6;32;;;;;;;1.46;88.35254;936.4836;;;;
2023/03/05 04:50:15;;;;;;;65.8;32.2;;;;;;;1.4;88.37109;936.4546;;;;
2023/03/05 04:52:45;;;;;;;66.1;32.8;;;;;;;1.5;88.33594;936.4244;;;;
2023/03/05 04:55:10;;;;;;;65.3;32.7;;;;;;;1.6;87.79785;936.4332;;;;
2023/03/05 04:57:39;;;;;;;65.4;33.4;;;;;;;1.76;87.42871;936.3778;;;;
2023/03/05 05:00:14;;;;;;;66.7;32.5;;;;;;;1.76;87.22852;936.3702;;;;
2023/03/05 05:02:40;;;;;;;69.3;33.2;;;;;;;1.76;86.98242;936.2869;;;;
2023/03/05 05:05:05;;;;;;;66.4;31.9;;;;;;;1.69;87.0127;936.3389;;;;
2023/03/05 05:07:31;;;;;;;64.2;33.7;;;;;;;1.71;86.71484;936.3258;;;;
2023/03/05 05:09:59;;;;;;;63.8;33.7;;;;;;;1.56;87.35547;936.2513;;;;
2023/03/05 05:12:35;;;;;;;63.2;32.7;;;;;;;1.61;87.2666;936.318;;;;
2023/03/05 05:15:03;;;;;;;67.7;32.4;;;;;;;1.65;87.21777;936.2552;;;;
2023/03/05 05:17:31;;;;;;;63.7;31.8;;;;;;;1.58;87.48242;936.2559;;;;
2023/03/05 05:19:56;;;;;;;69.2;33.3;;;;;;;1.69;87.13574;936.2497;;;;
2023/03/05 05:26:02;;;;;;;65;32;;;;;;;1.77;86.96191;936.1994;;;;
2023/03/05 05:28:27;;;;;;;64.6;31.5;;;;;;;1.87;86.63379;936.2111;;;;
2023/03/05 05:30:57;;;;;;;60.6;31.6;;;;;;;1.87;86.5127;936.1727;;;;
2023/03/05 05:33:22;;;;;;;56.1;30.1;;;;;;;1.83;86.68457;936.2193;;;;
2023/03/05 05:35:51;;;;;;;56.9;29.5;;;;;;;1.87;86.56836;936.1996;;;;
2023/03/05 05:38:16;;;;;;;55.9;29.1;;;;;;;1.87;86.32227;936.187;;;;
2023/03/05 05:40:47;;;;;;;53.8;28.9;;;;;;;1.88;86.34473;936.2225;;;;
2023/03/05 05:43:47;;;;;;;54.9;28.8;;;;;;;1.87;86.20898;936.2142;;;;
2023/03/05 05:46:19;;;;;;;53.2;29.4;;;;;;;1.85;86.22754;936.1553;;;;
2023/03/05 05:48:45;;;;;;;60.1;30.1;;;;;;;1.89;85.99023;936.23;;;;
2023/03/05 05:51:15;;;;;;;62;31.1;;;;;;;1.78;86.40332;936.198;;;;
2023/03/05 05:53:40;;;;;;;59.6;32.1;;;;;;;1.78;86.61719;936.1738;;;;
2023/03/05 06:04:23;;;;;;;61;31.9;;;;;;;1.74;86.59668;936.2043;;;;
2023/03/05 06:06:42;;;;;;;58.8;29.4;;;;;;;1.72;87.19727;936.1755;;;;
2023/03/05 06:09:07;;;;;;;60.3;31.4;;;;;;;1.82;87.22852;936.2941;;;;
2023/03/05 06:11:36;;;;;;;60.8;32.1;;;;;;;1.93;86.68066;936.2481;;;;
2023/03/05 06:14:06;;;;;;;60.8;30.6;;;;;;;2.06;86.23828;936.2573;;;;
2023/03/05 06:16:29;;;;;;;62.7;31.1;;;;;;;2.14;85.96387;936.3074;;;;
2023/03/05 06:19:03;;;;;;;60.1;29.9;;;;;;;2.23;85.56543;936.2748;;;;
2023/03/05 06:21:29;;;;;;;58.7;31.8;;;;;;;2.27;85.16211;936.2891;;;;
2023/03/05 06:23:57;;;;;;;54.3;30.1;;;;;;;2.32;84.96973;936.2979;;;;
2023/03/05 06:26:21;;;;;;;51.2;30.3;;;;;;;2.27;84.95898;936.307;;;;
2023/03/05 06:28:49;;;;;;;54.9;30.3;;;;;;;2.29;84.98633;936.2946;;;;
2023/03/05 06:31:14;;;;;;;52.1;29.3;;;;;;;2.36;84.59375;936.1962;;;;
2023/03/05 06:33:42;;;;;;;56.4;30.4;;;;;;;2.39;84.33203;936.2531;;;;
2023/03/05 06:36:10;;;;;;;50;28.1;;;;;;;2.35;84.37012;936.3106;;;;
2023/03/05 06:38:35;;;;;;;53.6;27.2;;;;;;;2.37;84.64258;936.2697;;;;
2023/03/05 06:41:00;;;;;;;53.6;28.8;;;;;;;2.37;84.91113;936.2508;;;;
2023/03/05 06:43:28;;;;;;;53.2;28.1;;;;;;;2.44;84.58984;936.2617;;;;
2023/03/05 06:45:53;;;;;;;57.8;29.4;;;;;;;2.5;84.28711;936.2299;;;;
2023/03/05 06:48:22;;;;;;;58.5;30.5;;;;;;;2.46;84.3584;936.1956;;;;
2023/03/05 06:50:50;;;;;;;64.3;31.2;;;;;;;2.42;84.36035;936.1013;;;;
2023/03/05 06:56:06;;;;;;;62.6;30.5;;;;;;;2.1;85.47266;936.1026;;;;
2023/03/05 06:58:35;;;;;;;60.9;31.6;;;;;;;2.11;85.39648;936.1115;;;;
2023/03/05 07:01:04;;;;;;;65.1;32.2;;;;;;;2.1;85.78613;936.0853;;;;
2023/03/05 07:03:29;;;;;;;59.7;32.5;;;;;;;2.23;85.27441;936.0973;;;;
2023/03/05 07:05:55;;;;;;;64.7;32.8;;;;;;;2.23;85.22949;936.1076;;;;
2023/03/05 07:08:20;;;;;;;62.7;31.5;;;;;;;2.33;84.9043;936.0664;;;;
2023/03/05 07:10:49;;;;;;;61.3;31.7;;;;;;;2.34;84.82715;935.9828;;;;
2023/03/05 07:13:14;;;;;;;58.5;31.6;;;;;;;2.43;84.74512;935.8921;;;;
2023/03/05 07:15:46;;;;;;;61.4;32.3;;;;;;;2.69;84.95215;936.0184;;;;
2023/03/05 07:18:15;;;;;;;57.5;30.5;;;;;;;2.9;84.16602;935.9688;;;;
2023/03/05 07:20:45;;;;;;;56.1;30.9;;;;;;;3.1;82.54395;935.9599;;;;
2023/03/05 07:23:12;;;;;;;55.7;29.7;;;;;;;3.24;81.61621;935.9891;;;;
2023/03/05 07:25:44;;;;;;;54.5;29.3;;;;;;;3.43;81.00293;935.9659;;;;
2023/03/05 07:31:47;;;;;;;56.7;29;;;;;;;3.95;79.13379;935.9966;;;;
2023/03/05 07:34:12;;;;;;;55;29.6;;;;;;;3.97;78.50684;935.8674;;;;
2023/03/05 07:36:41;;;;;;;53.2;29.6;;;;;;;3.85;78.21582;935.9613;;;;
2023/03/05 07:39:07;;;;;;;57.8;31;;;;;;;3.96;77.90918;935.957;;;;
2023/03/05 07:41:32;;;;;;;56.2;30.2;;;;;;;4.08;78.11133;935.952;;;;
2023/03/05 07:44:00;;;;;;;55;29.8;;;;;;;4.19;78.0293;935.9473;;;;
2023/03/05 07:46:25;;;;;;;57.1;29.7;;;;;;;3.68;77.94824;935.9008;;;;
2023/03/05 07:48:53;;;;;;;54.2;28.7;;;;;;;3.79;78.31836;936.031;;;;
2023/03/05 07:51:18;;;;;;;60.4;29.9;;;;;;;3.75;78.23242;935.9998;;;;
2023/03/05 07:53:48;;;;;;;57.4;30;;;;;;;3.74;78.59863;935.978;;;;
2023/03/05 07:56:20;;;;;;;51.4;27.9;;;;;;;3.87;78.12891;935.9934;;;;
2023/03/05 07:58:45;;;;;;;54.4;28.8;;;;;;;3.98;78.43164;936.0276;;;;
2023/03/05 08:01:16;;;;;;;53.6;29.6;;;;;;;4.21;77.44922;935.9972;;;;
2023/03/05 08:03:41;;;;;;;49.4;26.8;;;;;;;4.27;77.15723;935.9998;;;;
2023/03/05 08:06:06;;;;;;;49.3;27.9;;;;;;;4.32;76.28809;935.8994;;;;
2023/03/05 08:08:36;;;;;;;80;41.3;;;;;;;4.19;76.81641;935.9498;;;;
2023/03/05 08:11:01;;;;;;;57;31.2;;;;;;;4.24;76.53223;935.9894;;;;
2023/03/05 08:13:30;;;;;;;46.1;26.8;;;;;;;4.2;75.7832;935.9478;;;;
2023/03/05 08:16:03;;;;;;;50.2;27.5;;;;;;;4.45;75.96094;935.8995;;;;
2023/03/05 08:18:28;;;;;;;51.8;26.7;;;;;;;4.53;75.24512;935.8987;;;;
2023/03/05 08:20:59;;;;;;;49;26.9;;;;;;;4.61;74.00781;935.8333;;;;
2023/03/05 08:23:23;;;;;;;48.1;26.4;;;;;;;4.7;74.0918;935.7695;;;;
2023/03/05 08:25:48;;;;;;;44.9;25.3;;;;;;;4.85;73.67871;935.7605;;;;
2023/03/05 08:28:18;;;;;;;41.9;24.5;;;;;;;4.91;73.53027;935.7548;;;;
2023/03/05 08:30:41;;;;;;;44.7;25.4;;;;;;;5.1;73.04395;935.7592;;;;
2023/03/05 08:33:06;;;;;;;44.1;25.5;;;;;;;5.35;72.20801;935.6877;;;;
2023/03/05 08:35:31;;;;;;;43.1;25.3;;;;;;;5.37;71.71289;935.7142;;;;
2023/03/05 08:38:00;;;;;;;44.9;26.4;;;;;;;5.42;71.1709;935.6638;;;;
2023/03/05 08:40:25;;;;;;;45.4;26.1;;;;;;;5.44;71.47852;935.6728;;;;
2023/03/05 08:42:57;;;;;;;48.4;26.5;;;;;;;5.62;71.14746;935.6641;;;;
2023/03/05 08:45:22;;;;;;;46.7;25.7;;;;;;;5.74;70.31055;935.6266;;;;
2023/03/05 08:47:53;;;;;;;46.7;26;;;;;;;5.86;70.2041;935.5244;;;;
2023/03/05 08:50:24;;;;;;;42.4;24.9;;;;;;;5.89;70.31152;935.488;;;;
2023/03/05 08:52:56;;;;;;;44.7;24.9;;;;;;;6.24;69.19238;935.4703;;;;
2023/03/05 08:55:25;;;;;;;39.4;24.1;;;;;;;6.52;67.35938;935.3862;;;;
2023/03/05 08:57:59;;;;;;;40.4;24.6;;;;;;;6.71;66.81348;935.3592;;;;
2023/03/05 09:00:25;;;;;;;41;24.1;;;;;;;6.54;65.98242;935.3122;;;;
2023/03/05 09:02:59;;;;;;;44.1;24.3;;;;;;;6.47;67.20508;935.257;;;;
2023/03/05 09:05:24;;;;;;;38.8;23.5;;;;;;;6.98;65.82422;935.1794;;;;
2023/03/05 09:07:53;;;;;;;39.8;24.5;;;;;;;7.32;67.07813;935.1121;;;;
2023/03/05 09:10:18;;;;;;;38.1;21.9;;;;;;;8.07;61.72461;935.115;;;;
2023/03/05 09:12:43;;;;;;;35.7;20.5;;;;;;;7.72;61.73047;935.0967;;;;
2023/03/05 09:15:17;;;;;;;35.1;22.1;;;;;;;7.91;61.97266;935.1291;;;;
2023/03/05 09:17:47;;;;;;;38.7;22.6;;;;;;;7.7;61.51172;935.1788;;;;
2023/03/05 09:20:15;;;;;;;41.2;23.8;;;;;;;7.57;62.52344;935.2335;;;;
2023/03/05 09:22:40;;;;;;;36;22.2;;;;;;;7.54;62.32715;935.2322;;;;
2023/03/05 09:25:08;;;;;;;40.6;23.6;;;;;;;7.14;65.3623;935.1808;;;;
2023/03/05 09:27:35;;;;;;;38.9;23.5;;;;;;;7.71;63.30469;935.2034;;;;
2023/03/05 09:30:03;;;;;;;37.4;22.1;;;;;;;7.11;63.08105;935.0552;;;;
2023/03/05 09:32:28;;;;;;;36.4;21.5;;;;;;;7.06;64.68164;935.0923;;;;
2023/03/05 09:34:57;;;;;;;35.7;20.9;;;;;;;7.25;63.40723;934.9922;;;;
2023/03/05 09:37:23;;;;;;;35.3;21.4;;;;;;;7.1;62.875;935.0851;;;;
2023/03/05 09:39:54;;;;;;;35.9;21.2;;;;;;;7;63.56348;935.0468;;;;
2023/03/05 09:42:22;;;;;;;35.2;21.7;;;;;;;6.83;63.28906;934.967;;;;
2023/03/05 09:44:45;;;;;;;36.3;22.5;;;;;;;6.46;65.07813;935.0164;;;;
2023/03/05 09:47:13;;;;;;;36.1;21.6;;;;;;;6.74;64.29395;935.0306;;;;
2023/03/05 09:49:38;;;;;;;35.8;22.4;;;;;;;6.96;63.23926;934.9501;;;;
2023/03/05 09:52:07;;;;;;;39.4;23.4;;;;;;;7.04;62.23242;934.9709;;;;
2023/03/05 09:54:32;;;;;;;38.2;22.9;;;;;;;7.29;62.04199;934.9587;;;;
2023/03/05 09:57:01;;;;;;;38.5;22.3;;;;;;;7.38;61.76074;934.9364;;;;
2023/03/05 09:59:27;;;;;;;34;21.2;;;;;;;7.3;61.23926;934.8456;;;;
2023/03/05 10:01:55;;;;;;;34.9;22.3;;;;;;;7.05;61.7793;934.842;;;;
2023/03/05 10:04:21;;;;;;;33.6;20.7;;;;;;;7.24;61.94434;934.7988;;;;
2023/03/05 10:06:46;;;;;;;30.7;19.3;;;;;;;6.98;61.31738;934.7463;;;;
2023/03/05 10:09:13;;;;;;;29.7;17.6;;;;;;;6.96;60.49902;934.7231;;;;
2023/03/05 10:11:43;;;;;;;28.8;16.9;;;;;;;7.17;60.74512;934.6905;;;;
2023/03/05 10:14:12;;;;;;;23;14.8;;;;;;;7.03;59.34277;934.6445;;;;
2023/03/05 10:16:36;;;;;;;22;13.9;;;;;;;7.36;59.58105;934.6786;;;;
2023/03/05 10:19:02;;;;;;;21.4;12.9;;;;;;;7.6;58.36816;934.5781;;;;
2023/03/05 10:21:29;;;;;;;19.7;12;;;;;;;7.24;59.48535;934.6292;;;;
2023/03/05 10:23:56;;;;;;;22.7;13.3;;;;;;;7.31;58.5332;934.552;;;;
2023/03/05 10:26:22;;;;;;;21.4;13;;;;;;;7.69;57.89258;934.4703;;;;
2023/03/05 10:28:47;;;;;;;20.1;11.6;;;;;;;7.8;56.87402;934.5391;;;;
2023/03/05 10:31:12;;;;;;;19.9;12.4;;;;;;;8.02;56.62012;934.5323;;;;
2023/03/05 10:33:39;;;;;;;19.5;12.1;;;;;;;7.99;56.59277;934.5292;;;;
2023/03/05 10:36:04;;;;;;;19.9;12.2;;;;;;;7.88;57.08984;934.5278;;;;
2023/03/05 10:38:30;;;;;;;20.2;12.3;;;;;;;8.08;56.0498;934.3784;;;;
2023/03/05 10:41:00;;;;;;;22.7;13.5;;;;;;;7.37;58.47266;934.4183;;;;
2023/03/05 10:43:27;;;;;;;22.2;14.3;;;;;;;7.09;59.71387;934.4556;;;;
2023/03/05 10:45:55;;;;;;;24;14;;;;;;;7.54;58.98242;934.4028;;;;
2023/03/05 10:48:20;;;;;;;19.7;12;;;;;;;7.03;58.73145;934.3867;;;;
2023/03/05 10:50:45;;;;;;;16.9;10.6;;;;;;;7.11;57.47559;934.3769;;;;
2023/03/05 10:53:14;;;;;;;17.9;10.2;;;;;;;6.97;58.25879;934.3433;;;;
2023/03/05 10:55:39;;;;;;;18.9;11.3;;;;;;;6.86;60.28125;934.347;;;;
2023/03/05 10:58:04;;;;;;;20.8;13.2;;;;;;;6.28;63.7959;934.1903;;;;
2023/03/05 11:00:31;;;;;;;25.8;15.4;;;;;;;6.21;63.94141;934.1834;;;;
2023/03/05 11:03:00;;;;;;;25.5;15.9;;;;;;;5.94;64.77246;934.2068;;;;
2023/03/05 11:05:30;;;;;;;22.5;13.9;;;;;;;6.38;62.4082;934.2191;;;;
2023/03/05 11:07:55;;;;;;;21;13.2;;;;;;;6.15;63.12109;934.2272;;;;
2023/03/05 11:10:24;;;;;;;22.3;13.6;;;;;;;6.03;63.2832;934.16;;;;
2023/03/05 11:12:56;;;;;;;23.3;13.8;;;;;;;5.82;64.4834;934.1766;;;;
2023/03/05 11:15:25;;;;;;;22.5;13.4;;;;;;;5.74;63.78223;934.1848;;;;
2023/03/05 11:17:57;;;;;;;23.2;13.6;;;;;;;5.6;65.47656;934.1264;;;;
2023/03/05 11:20:29;;;;;;;19.8;12.5;;;;;;;5.6;65.26367;934.0696;;;;
2023/03/05 11:22:55;;;;;;;22.5;13.6;;;;;;;5.58;65.11426;934.0597;;;;
2023/03/05 11:25:21;;;;;;;24.3;14.5;;;;;;;5.66;66.29883;933.9573;;;;
2023/03/05 11:27:51;;;;;;;22.5;13.6;;;;;;;5.78;64.79395;934.0072;;;;
2023/03/05 11:30:16;;;;;;;19.2;11.5;;;;;;;5.68;65.16211;933.9972;;;;
2023/03/05 11:32:44;;;;;;;20.5;11.6;;;;;;;5.45;66.03027;933.8137;;;;
2023/03/05 11:35:09;;;;;;;20.4;12;;;;;;;5.51;67.07813;933.9017;;;;
2023/03/05 11:37:38;;;;;;;19.1;10.9;;;;;;;5.52;64.34668;933.8064;;;;
2023/03/05 11:40:09;;;;;;;18;11.1;;;;;;;5.48;64.35254;933.8095;;;;
2023/03/05 11:42:38;;;;;;;18.4;11.5;;;;;;;5.43;64.61719;933.8141;;;;
2023/03/05 11:45:03;;;;;;;16.1;10.3;;;;;;;5.38;65.18555;933.7156;;;;
2023/03/05 11:47:35;;;;;;;17;11.1;;;;;;;5.48;66.22559;933.7006;;;;
2023/03/05 11:50:00;;;;;;;20.4;12.2;;;;;;;5.46;64.72363;933.6861;;;;
2023/03/05 11:52:33;;;;;;;20;11.6;;;;;;;5.34;65.39258;933.6983;;;;
2023/03/05 11:54:58;;;;;;;16.4;10.1;;;;;;;5.2;66.37598;933.7257;;;;
2023/03/05 11:57:26;;;;;;;19;12;;;;;;;5.27;66.18359;933.6833;;;;
2023/03/05 11:59:52;;;;;;;17.1;10.8;;;;;;;5.37;65.78027;933.5544;;;;
2023/03/05 12:02:16;;;;;;;17.2;11.2;;;;;;;5.08;66.875;933.5581;;;;
2023/03/05 12:04:45;;;;;;;15;10.2;;;;;;;5.11;66.63086;933.5106;;;;
2023/03/05 12:07:11;;;;;;;19.3;11.1;;;;;;;5.1;67.28516;933.4662;;;;
2023/03/05 12:09:36;;;;;;;16.8;10.5;;;;;;;5.03;67.4541;933.5042;;;;
2023/03/05 12:12:03;;;;;;;18.2;10.9;;;;;;;5.11;66.2832;933.4326;;;;
2023/03/05 12:14:29;;;;;;;18.1;10.9;;;;;;;4.9;66.98145;933.452;;;;
2023/03/05 12:16:55;;;;;;;17.5;10.8;;;;;;;5.02;66.6748;933.3856;;;;
2023/03/05 12:19:20;;;;;;;17.7;10.2;;;;;;;5.29;66.23047;933.3577;;;;
2023/03/05 12:21:45;;;;;;;18.3;10.8;;;;;;;5.32;65.34375;933.2675;;;;
2023/03/05 12:24:15;;;;;;;15.4;9.4;;;;;;;5.53;64.15625;933.2508;;;;
2023/03/05 12:26:40;;;;;;;17.2;10.3;;;;;;;5.45;65.58984;933.2469;;;;
2023/03/05 12:29:07;;;;;;;16.8;9.6;;;;;;;5.57;64.62695;933.0692;;;;
2023/03/05 12:31:32;;;;;;;15.9;9.6;;;;;;;5.63;65.02051;932.9697;;;;
2023/03/05 12:34:00;;;;;;;17.4;10.3;;;;;;;5.68;63.9873;932.9767;;;;
2023/03/05 12:36:25;;;;;;;19.6;11.1;;;;;;;5.61;63.76465;932.9693;;;;
2023/03/05 12:38:54;;;;;;;15.4;9.9;;;;;;;5.56;63.85742;932.9347;;;;
2023/03/05 12:41:24;;;;;;;14.1;8.5;;;;;;;5.76;62.67969;932.916;;;;
2023/03/05 12:43:49;;;;;;;14.1;9.5;;;;;;;5.74;64.41602;932.8809;;;;
2023/03/05 12:46:14;;;;;;;14.9;9.6;;;;;;;5.88;63.83691;932.8045;;;;
2023/03/05 12:48:44;;;;;;;14.9;9.2;;;;;;;6.01;63.48438;932.8312;;;;
2023/03/05 12:51:14;;;;;;;14.8;8.7;;;;;;;5.82;63.00391;932.6984;;;;
2023/03/05 12:53:40;;;;;;;14.4;9.5;;;;;;;5.84;63.52637;932.7327;;;;
2023/03/05 12:56:09;;;;;;;14.4;9.5;;;;;;;5.57;63.7793;932.7147;;;;
2023/03/05 12:58:34;;;;;;;14.6;9.2;;;;;;;5.43;65.08887;932.7032;;;;
2023/03/05 13:00:59;;;;;;;13.2;9;;;;;;;5.45;65.14844;932.702;;;;
2023/03/05 13:03:24;;;;;;;12.6;8.2;;;;;;;5.54;64.0127;932.6438;;;;
2023/03/05 13:05:54;;;;;;;10.8;7.9;;;;;;;5.53;63.77441;932.6017;;;;
2023/03/05 13:08:19;;;;;;;13.3;8.7;;;;;;;5.68;63.41309;932.5945;;;;
2023/03/05 13:10:46;;;;;;;13;8.2;;;;;;;5.57;64.98828;932.6443;;;;
2023/03/05 13:13:11;;;;;;;14.8;8.6;;;;;;;5.6;63.29785;932.637;;;;
2023/03/05 13:15:36;;;;;;;13.7;9.1;;;;;;;5.68;63.85352;932.5693;;;;
2023/03/05 13:18:07;;;;;;;12.6;8.6;;;;;;;5.44;65.3291;932.5812;;;;
2023/03/05 13:20:32;;;;;;;15.6;9.6;;;;;;;5.55;63.86719;932.5327;;;;
2023/03/05 13:22:59;;;;;;;16.6;9.6;;;;;;;5.77;63.19922;932.5527;;;;
2023/03/05 13:25:28;;;;;;;14.3;9.7;;;;;;;6.14;63.16504;932.5016;;;;
2023/03/05 13:27:53;;;;;;;15.1;9.1;;;;;;;6;62.47754;932.4712;;;;
2023/03/05 13:30:23;;;;;;;14.2;9;;;;;;;6.09;62.5918;932.5418;;;;
2023/03/05 13:32:54;;;;;;;13.6;8.7;;;;;;;6.06;62.8252;932.5398;;;;
2023/03/05 13:35:22;;;;;;;14.5;9.3;;;;;;;6.23;62.60059;932.519;;;;
2023/03/05 13:37:53;;;;;;;14.1;8.6;;;;;;;6.33;61.1123;932.4749;;;;
2023/03/05 13:40:20;;;;;;;13.2;8.5;;;;;;;6.1;63.39551;932.5048;;;;
2023/03/05 13:42:45;;;;;;;13;8.2;;;;;;;6.26;61.82422;932.5259;;;;
2023/03/05 13:45:12;;;;;;;12.6;7.8;;;;;;;6.84;59.72461;932.4025;;;;
2023/03/05 13:47:44;;;;;;;13.3;8.3;;;;;;;7.01;58.74023;932.3861;;;;
2023/03/05 13:50:16;;;;;;;13.7;8.6;;;;;;;6.55;62.13867;932.4057;;;;
2023/03/05 13:52:42;;;;;;;15.2;8.9;;;;;;;6.55;61.47168;932.3283;;;;
2023/03/05 13:55:08;;;;;;;15.2;9.2;;;;;;;6.15;63.10938;932.3633;;;;
2023/03/05 13:57:34;;;;;;;12.5;8.9;;;;;;;6.18;63.08008;932.2366;;;;
2023/03/05 14:00:00;;;;;;;15.8;9.3;;;;;;;6.2;62.5625;932.3547;;;;
2023/03/05 14:02:24;;;;;;;13.5;8.8;;;;;;;6.24;61.44922;932.3422;;;;
2023/03/05 14:04:55;;;;;;;14;9.4;;;;;;;6.38;62.31738;932.2922;;;;
2023/03/05 14:07:25;;;;;;;14.8;9.3;;;;;;;6.5;61.03516;932.1606;;;;
2023/03/05 14:09:50;;;;;;;14.8;9.6;;;;;;;6.44;62.31543;932.1669;;;;
2023/03/05 14:12:15;;;;;;;14.8;9.3;;;;;;;6.16;62.89648;932.0829;;;;
2023/03/05 14:14:45;;;;;;;14.8;9.4;;;;;;;6.14;63.14063;932.0778;;;;
2023/03/05 14:17:12;;;;;;;17.6;10.6;;;;;;;5.92;64.08008;932.1721;;;;
2023/03/05 14:19:40;;;;;;;17.5;9.9;;;;;;;5.83;65.88379;932.1433;;;;
2023/03/05 14:22:09;;;;;;;16.7;9.2;;;;;;;6.2;63.17285;932.1318;;;;
2023/03/05 14:24:36;;;;;;;15.6;10.1;;;;;;;6.14;63.9209;932.0999;;;;
2023/03/05 14:27:02;;;;;;;14;9.3;;;;;;;6.09;62.75195;932.0709;;;;
2023/03/05 14:29:26;;;;;;;15.5;9.6;;;;;;;5.93;64.5127;932.0545;;;;
2023/03/05 14:31:56;;;;;;;13.9;9.3;;;;;;;5.6;65.37598;932.0417;;;;
2023/03/05 14:34:21;;;;;;;14.8;9.7;;;;;;;5.68;65.8291;931.9983;;;;
2023/03/05 14:36:47;;;;;;;16.9;9.6;;;;;;;5.64;64.5127;932.0869;;;;
2023/03/05 14:39:12;;;;;;;17.5;9.8;;;;;;;5.6;65.27441;932.0511;;;;
2023/03/05 14:41:37;;;;;;;14.3;9.1;;;;;;;5.44;65.22754;931.9835;;;;
2023/03/05 14:44:02;;;;;;;14.5;9;;;;;;;5.4;66.05664;931.9793;;;;
2023/03/05 14:46:28;;;;;;;14.7;10;;;;;;;5.41;65.92285;932.0105;;;;
2023/03/05 14:48:54;;;;;;;13.9;9.6;;;;;;;5.37;66.86328;931.8943;;;;
2023/03/05 14:51:24;;;;;;;14.1;9.6;;;;;;;5.45;65.48828;931.9166;;;;
2023/03/05 14:53:49;;;;;;;15.3;9.7;;;;;;;5.42;65.88867;931.8867;;;;
2023/03/05 14:56:14;;;;;;;15.1;9.7;;;;;;;5.56;65.33691;931.8988;;;;
2023/03/05 14:58:40;;;;;;;13.5;9.2;;;;;;;5.56;66.13867;931.8577;;;;
2023/03/05 15:01:06;;;;;;;17.8;10.3;;;;;;;5.58;65.98145;931.8454;;;;
2023/03/05 15:03:36;;;;;;;14.4;9.1;;;;;;;5.61;65.20996;931.8005;;;;
2023/03/05 15:06:01;;;;;;;15.3;9.4;;;;;;;5.61;65.20801;931.8281;;;;
2023/03/05 15:08:26;;;;;;;15;9.1;;;;;;;5.39;65.81738;931.7731;;;;
2023/03/05 15:10:54;;;;;;;16.3;9.9;;;;;;;5.15;66.32031;931.8148;;;;
2023/03/05 15:13:19;;;;;;;13.2;9.1;;;;;;;5.18;66.7666;931.7658;;;;
2023/03/05 15:15:50;;;;;;;15.5;9.9;;;;;;;5.25;65.96582;931.6964;;;;
2023/03/05 15:18:21;;;;;;;13.5;9.3;;;;;;;5.06;66.63379;931.6372;;;;
2023/03/05 15:20:47;;;;;;;15.3;9.7;;;;;;;5.14;66.12891;931.7405;;;;
2023/03/05 15:23:14;;;;;;;18;10.4;;;;;;;5.02;66.49414;931.6365;;;;
2023/03/05 15:25:39;;;;;;;13.6;9.1;;;;;;;5.21;66.38672;931.649;;;;
2023/03/05 15:28:07;;;;;;;15.5;9.8;;;;;;;5.22;66.7959;931.6855;;;;
2023/03/05 15:30:32;;;;;;;16.3;9.7;;;;;;;5.27;67.17383;931.6808;;;;
2023/03/05 15:32:58;;;;;;;15.3;9.3;;;;;;;5.22;66.51367;931.6169;;;;
2023/03/05 15:35:23;;;;;;;14.4;10.1;;;;;;;5.27;65.57324;931.6091;;;;
2023/03/05 15:37:52;;;;;;;16;10.3;;;;;;;5.24;66.3916;931.5903;;;;
2023/03/05 15:40:17;;;;;;;16;10.1;;;;;;;5.13;67.35645;931.6339;;;;
2023/03/05 15:42:49;;;;;;;19.1;9.9;;;;;;;5.11;68.08691;931.6099;;;;
2023/03/05 15:45:22;;;;;;;15.1;10.1;;;;;;;5.23;67.49609;931.5879;;;;
2023/03/05 15:47:52;;;;;;;15.5;10.2;;;;;;;5.43;66.34277;931.5413;;;;